Time;durP1;ratioP1;P1;durP2;ratioP2;P2;SDS_P1;SDS_P2;PMS_P1;PMS_P2;Temp;Humidity;BMP_temperature;BMP_pressure;BME280_temperature;BME280_humidity;BME280_pressure;Samples;Min_cycle;Max_cycle;Signal;HPM_P1;HPM_P2
2020/12/08 00:00:19;;;;;;;29.42;20.65;;;;;;;;;;5018880;28;20052;-85
2020/12/08 00:02:45;;;;;;;32.33;20.77;;;;;;;;;;5019708;28;20079;-84
2020/12/08 00:05:11;;;;;;;32.55;21.50;;;;;;;;;;5003105;28;20048;-84
2020/12/08 00:07:39;;;;;;;33.15;22.52;;;;;;;;;;5019675;28;20391;-84
2020/12/08 00:10:05;;;;;;;33.55;21.40;;;;;;;;;;5003726;28;20087;-84
2020/12/08 00:12:31;;;;;;;31.50;21.05;;;;;;;;;;5020428;28;20045;-85
2020/12/08 00:14:57;;;;;;;31.95;20.33;;;;;;;;;;5020465;28;20406;-84
2020/12/08 00:17:23;;;;;;;32.65;21.42;;;;;;;;;;5038021;28;20045;-84
2020/12/08 00:19:49;;;;;;;30.67;20.25;;;;;;;;;;5020081;28;20049;-84
2020/12/08 00:22:16;;;;;;;33.92;22.17;;;;;;;;;;5047150;28;20544;-84
2020/12/08 00:24:43;;;;;;;32.65;20.85;;;;;;;;;;5057536;28;20393;-85
2020/12/08 00:27:10;;;;;;;32.72;20.85;;;;;;;;;;5028534;28;20084;-85
2020/12/08 00:29:37;;;;;;;34.60;21.70;;;;;;;;;;5008662;28;20058;-85
2020/12/08 00:32:03;;;;;;;31.58;21.10;;;;;;;;;;5025082;28;20042;-85
2020/12/08 00:34:29;;;;;;;30.50;20.05;;;;;;;;;;5037491;28;20046;-85
2020/12/08 00:36:55;;;;;;;30.58;20.35;;;;;;;;;;5019568;28;20042;-85
2020/12/08 00:39:22;;;;;;;30.50;20.20;;;;;;;;;;5036914;28;20591;-85
2020/12/08 00:41:49;;;;;;;32.90;21.63;;;;;;;;;;5019420;28;20053;-85
2020/12/08 00:44:14;;;;;;;35.97;22.05;;;;;;;;;;5003095;28;20049;-84
2020/12/08 00:46:41;;;;;;;31.02;21.25;;;;;;;;;;5036388;28;20461;-85
2020/12/08 00:49:07;;;;;;;36.28;22.55;;;;;;;;;;5020398;28;20421;-84
2020/12/08 00:51:33;;;;;;;32.65;21.83;;;;;;;;;;5024002;28;20481;-85
2020/12/08 00:54:00;;;;;;;34.53;22.98;;;;;;;;;;5056070;28;20049;-84
2020/12/08 00:56:26;;;;;;;35.92;21.92;;;;;;;;;;5037863;28;20057;-85
2020/12/08 00:58:53;;;;;;;33.75;21.65;;;;;;;;;;5037708;28;20045;-85
2020/12/08 01:01:19;;;;;;;33.42;21.70;;;;;;;;;;5056438;28;20056;-85
2020/12/08 01:03:45;;;;;;;33.25;22.30;;;;;;;;;;5056356;28;20048;-85
2020/12/08 01:06:11;;;;;;;34.92;21.83;;;;;;;;;;5054728;28;20073;-85
2020/12/08 01:08:37;;;;;;;35.40;23.02;;;;;;;;;;5018460;28;20060;-85
2020/12/08 01:11:03;;;;;;;33.35;21.25;;;;;;;;;;5036126;28;20053;-85
2020/12/08 01:13:34;;;;;;;37.67;23.40;;;;;;;;;;5018874;28;20075;-85
2020/12/08 01:16:02;;;;;;;33.03;21.73;;;;;;;;;;5002804;28;20080;-85
2020/12/08 01:18:28;;;;;;;32.80;21.60;;;;;;;;;;5035678;28;20054;-85
2020/12/08 01:20:55;;;;;;;35.75;22.73;;;;;;;;;;5001984;28;20509;-85
2020/12/08 01:23:21;;;;;;;34.75;21.40;;;;;;;;;;5017464;28;20104;-85
2020/12/08 01:25:47;;;;;;;32.60;20.98;;;;;;;;;;5035040;28;20412;-85
2020/12/08 01:28:13;;;;;;;34.97;22.25;;;;;;;;;;5017672;28;20390;-85
2020/12/08 01:30:39;;;;;;;32.42;20.45;;;;;;;;;;5018804;28;20045;-85
2020/12/08 01:33:07;;;;;;;34.20;21.33;;;;;;;;;;5018282;28;20041;-86
2020/12/08 01:35:33;;;;;;;32.63;20.73;;;;;;;;;;5000992;28;20111;-85
2020/12/08 01:37:59;;;;;;;35.38;22.10;;;;;;;;;;5050509;28;20048;-85
2020/12/08 01:40:25;;;;;;;31.00;19.85;;;;;;;;;;5054383;28;20386;-85
2020/12/08 01:42:51;;;;;;;31.98;20.88;;;;;;;;;;5036631;28;20489;-85
2020/12/08 01:45:17;;;;;;;34.15;21.75;;;;;;;;;;5055435;28;20079;-85
2020/12/08 01:47:43;;;;;;;35.45;22.00;;;;;;;;;;5053745;28;20123;-85
2020/12/08 01:50:10;;;;;;;34.05;20.92;;;;;;;;;;5036790;28;20060;-85
2020/12/08 01:52:36;;;;;;;34.03;20.50;;;;;;;;;;5055127;28;20049;-85
2020/12/08 01:55:04;;;;;;;36.58;22.38;;;;;;;;;;5037685;28;20547;-85
2020/12/08 01:57:30;;;;;;;32.00;20.20;;;;;;;;;;5054378;28;20045;-85
2020/12/08 01:59:56;;;;;;;36.53;21.42;;;;;;;;;;5036639;28;20041;-86
2020/12/08 02:02:24;;;;;;;37.92;22.45;;;;;;;;;;5039550;22;20075;-88
2020/12/08 02:04:50;;;;;;;33.72;21.55;;;;;;;;;;5033460;28;20485;-88
2020/12/08 02:07:18;;;;;;;36.78;22.50;;;;;;;;;;5033373;28;20060;-88
2020/12/08 02:09:44;;;;;;;31.42;20.33;;;;;;;;;;5033528;28;20045;-88
2020/12/08 02:12:10;;;;;;;36.80;22.02;;;;;;;;;;5033778;28;20382;-88
2020/12/08 02:14:36;;;;;;;36.88;22.38;;;;;;;;;;5033664;28;20049;-88
2020/12/08 02:17:02;;;;;;;34.13;20.92;;;;;;;;;;5033542;28;20132;-88
2020/12/08 02:19:30;;;;;;;37.53;21.42;;;;;;;;;;5033686;28;20056;-88
2020/12/08 02:21:57;;;;;;;38.03;22.02;;;;;;;;;;5033572;28;20053;-88
2020/12/08 02:24:23;;;;;;;33.78;20.65;;;;;;;;;;5033197;28;20507;-89
2020/12/08 02:26:49;;;;;;;40.22;21.83;;;;;;;;;;5033198;28;20042;-88
2020/12/08 02:29:15;;;;;;;36.92;21.95;;;;;;;;;;5032690;28;20060;-89
2020/12/08 02:31:41;;;;;;;32.63;20.20;;;;;;;;;;5033225;28;20052;-88
2020/12/08 02:34:07;;;;;;;35.00;21.52;;;;;;;;;;5033375;28;20057;-88
2020/12/08 02:36:33;;;;;;;33.47;20.40;;;;;;;;;;5033480;28;20084;-88
2020/12/08 02:39:00;;;;;;;36.33;22.30;;;;;;;;;;5033516;28;20061;-88
2020/12/08 02:41:26;;;;;;;36.10;21.83;;;;;;;;;;5033415;28;20049;-88
2020/12/08 02:43:53;;;;;;;33.05;19.95;;;;;;;;;;5033322;28;20466;-88
2020/12/08 02:46:19;;;;;;;32.78;19.63;;;;;;;;;;5033227;28;20057;-88
2020/12/08 02:48:47;;;;;;;36.88;20.55;;;;;;;;;;5033212;28;20054;-88
2020/12/08 02:51:16;;;;;;;32.42;19.70;;;;;;;;;;5033027;28;20500;-88
2020/12/08 02:53:42;;;;;;;42.03;23.30;;;;;;;;;;5049667;28;20052;-88
2020/12/08 02:56:09;;;;;;;38.95;22.80;;;;;;;;;;5053360;28;20045;-88
2020/12/08 02:58:35;;;;;;;35.40;19.58;;;;;;;;;;5053327;28;20055;-88
2020/12/08 03:01:01;;;;;;;34.85;20.67;;;;;;;;;;5053110;28;20045;-88
2020/12/08 03:03:27;;;;;;;36.95;20.67;;;;;;;;;;5052977;28;20127;-89
2020/12/08 03:05:53;;;;;;;35.70;20.13;;;;;;;;;;5053547;28;20045;-89
2020/12/08 03:08:19;;;;;;;35.63;20.38;;;;;;;;;;5053245;28;20586;-89
2020/12/08 03:10:45;;;;;;;35.78;20.33;;;;;;;;;;5052456;28;20045;-88
2020/12/08 03:13:12;;;;;;;35.05;20.15;;;;;;;;;;5052642;28;20048;-88
2020/12/08 03:15:38;;;;;;;34.00;20.90;;;;;;;;;;5052827;28;20052;-88
2020/12/08 03:18:04;;;;;;;42.63;23.75;;;;;;;;;;5052918;28;20456;-88
2020/12/08 03:20:30;;;;;;;34.47;20.42;;;;;;;;;;5052615;28;20045;-88
2020/12/08 03:22:56;;;;;;;32.65;19.13;;;;;;;;;;5052543;28;20045;-88
2020/12/08 03:25:22;;;;;;;32.38;18.63;;;;;;;;;;5052741;28;20076;-88
2020/12/08 03:27:48;;;;;;;34.08;20.75;;;;;;;;;;5052489;28;20049;-88
2020/12/08 03:30:15;;;;;;;34.55;21.02;;;;;;;;;;5052576;28;20140;-88
2020/12/08 03:32:41;;;;;;;35.03;20.08;;;;;;;;;;5052723;28;20049;-88
2020/12/08 03:35:07;;;;;;;35.25;19.65;;;;;;;;;;5052641;28;20061;-88
2020/12/08 03:37:33;;;;;;;36.08;20.88;;;;;;;;;;5052986;28;20056;-88
2020/12/08 03:39:59;;;;;;;31.95;19.42;;;;;;;;;;5053052;28;20049;-89
2020/12/08 03:42:25;;;;;;;37.25;20.98;;;;;;;;;;5056190;28;20397;-88
2020/12/08 03:44:51;;;;;;;35.72;20.70;;;;;;;;;;5056274;28;20132;-89
2020/12/08 03:47:18;;;;;;;34.42;20.52;;;;;;;;;;5056469;28;20073;-89
2020/12/08 03:49:44;;;;;;;37.65;20.45;;;;;;;;;;5055888;28;20060;-88
2020/12/08 03:52:10;;;;;;;37.13;20.80;;;;;;;;;;5055701;28;20041;-88
2020/12/08 03:54:36;;;;;;;32.60;19.83;;;;;;;;;;5056132;28;20136;-88
2020/12/08 03:57:02;;;;;;;32.30;18.88;;;;;;;;;;5055806;28;20053;-88
2020/12/08 03:59:28;;;;;;;32.53;18.70;;;;;;;;;;5055596;28;20049;-88
2020/12/08 04:01:54;;;;;;;36.10;20.90;;;;;;;;;;5057058;28;20072;-88
2020/12/08 04:04:20;;;;;;;33.85;18.45;;;;;;;;;;5056606;28;20052;-89
2020/12/08 04:06:47;;;;;;;31.60;18.95;;;;;;;;;;5055919;28;20045;-88
2020/12/08 04:09:13;;;;;;;31.05;18.30;;;;;;;;;;5056131;28;20045;-88
2020/12/08 04:11:39;;;;;;;35.10;20.10;;;;;;;;;;5055741;28;20041;-88
2020/12/08 04:14:05;;;;;;;34.40;19.10;;;;;;;;;;5055731;28;20102;-88
2020/12/08 04:16:32;;;;;;;32.85;18.95;;;;;;;;;;5055735;28;20049;-88
2020/12/08 04:18:58;;;;;;;32.15;19.33;;;;;;;;;;5055730;28;20057;-88
2020/12/08 04:21:27;;;;;;;31.05;18.90;;;;;;;;;;5055579;28;20591;-88
2020/12/08 04:23:54;;;;;;;32.63;18.55;;;;;;;;;;5044399;28;20045;-88
2020/12/08 04:26:20;;;;;;;32.78;19.15;;;;;;;;;;5035318;28;20099;-88
2020/12/08 04:28:46;;;;;;;37.72;19.60;;;;;;;;;;5035409;28;20041;-88
2020/12/08 04:31:14;;;;;;;33.85;19.80;;;;;;;;;;5035351;28;20408;-88
2020/12/08 04:33:40;;;;;;;35.10;19.63;;;;;;;;;;5035287;28;20516;-88
2020/12/08 04:36:10;;;;;;;36.38;21.60;;;;;;;;;;5034923;28;20412;-88
2020/12/08 04:38:37;;;;;;;29.15;17.58;;;;;;;;;;5035232;28;20444;-88
2020/12/08 04:41:03;;;;;;;29.63;17.13;;;;;;;;;;5035097;28;20049;-88
2020/12/08 04:43:29;;;;;;;31.55;19.38;;;;;;;;;;5035188;28;20644;-87
2020/12/08 04:45:55;;;;;;;31.25;18.60;;;;;;;;;;5035489;28;20049;-88
2020/12/08 04:48:21;;;;;;;34.67;19.83;;;;;;;;;;5035362;28;20136;-88
2020/12/08 04:50:49;;;;;;;32.10;19.05;;;;;;;;;;5035154;28;20046;-88
2020/12/08 04:53:15;;;;;;;32.83;19.15;;;;;;;;;;5034558;28;20456;-88
2020/12/08 04:55:42;;;;;;;35.55;20.38;;;;;;;;;;5035020;28;20052;-87
2020/12/08 04:58:09;;;;;;;32.65;18.83;;;;;;;;;;5034574;28;20513;-87
2020/12/08 05:00:40;;;;;;;32.20;18.13;;;;;;;;;;5034416;28;20052;-88
2020/12/08 05:03:06;;;;;;;31.45;18.60;;;;;;;;;;5034601;28;20056;-88
2020/12/08 05:05:38;;;;;;;34.33;19.88;;;;;;;;;;5034228;28;20052;-88
2020/12/08 05:08:08;;;;;;;30.42;18.90;;;;;;;;;;5034699;28;20049;-88
2020/12/08 05:10:34;;;;;;;34.95;20.25;;;;;;;;;;5034510;28;20057;-88
2020/12/08 05:13:01;;;;;;;33.72;18.75;;;;;;;;;;5034251;28;20077;-88
2020/12/08 05:15:28;;;;;;;32.83;18.10;;;;;;;;;;5034271;28;20049;-88
2020/12/08 05:18:04;;;;;;;36.17;20.83;;;;;;;;;;5034507;28;20049;-88
2020/12/08 05:20:30;;;;;;;35.47;19.50;;;;;;;;;;5031100;28;20474;-88
2020/12/08 05:22:58;;;;;;;38.45;19.55;;;;;;;;;;5034464;28;20057;-88
2020/12/08 05:25:25;;;;;;;34.78;19.10;;;;;;;;;;5045319;28;20049;-89
2020/12/08 05:27:52;;;;;;;34.80;19.23;;;;;;;;;;5034351;28;20553;-89
2020/12/08 05:30:19;;;;;;;33.70;18.95;;;;;;;;;;5034567;28;20049;-88
2020/12/08 05:32:45;;;;;;;36.22;19.67;;;;;;;;;;5034314;28;20045;-88
2020/12/08 05:35:14;;;;;;;32.70;19.27;;;;;;;;;;5034617;28;20049;-89
2020/12/08 05:37:41;;;;;;;42.90;21.23;;;;;;;;;;5034475;28;20053;-88
2020/12/08 05:40:09;;;;;;;35.92;20.70;;;;;;;;;;5035038;28;20523;-89
2020/12/08 05:42:37;;;;;;;38.92;21.92;;;;;;;;;;5034518;28;20045;-89
2020/12/08 05:45:05;;;;;;;39.58;21.75;;;;;;;;;;5034558;28;20053;-89
2020/12/08 05:47:42;;;;;;;39.50;21.13;;;;;;;;;;5036018;28;20052;-88
2020/12/08 05:50:08;;;;;;;36.05;20.08;;;;;;;;;;5054656;28;20068;-88
2020/12/08 05:52:35;;;;;;;32.08;18.88;;;;;;;;;;5047231;28;20041;-87
2020/12/08 05:55:09;;;;;;;32.90;18.38;;;;;;;;;;5034319;28;20060;-87
2020/12/08 05:57:35;;;;;;;33.42;18.80;;;;;;;;;;5034174;28;20393;-87
2020/12/08 06:00:01;;;;;;;38.65;20.30;;;;;;;;;;5033882;28;20053;-87
2020/12/08 06:02:29;;;;;;;35.83;19.80;;;;;;;;;;5032899;28;20045;-87
2020/12/08 06:04:56;;;;;;;36.90;19.13;;;;;;;;;;5033432;28;20102;-87
2020/12/08 06:07:33;;;;;;;35.30;19.63;;;;;;;;;;5033605;28;20041;-86
2020/12/08 06:10:08;;;;;;;37.95;20.13;;;;;;;;;;5052911;28;20055;-87
2020/12/08 06:12:35;;;;;;;34.65;18.73;;;;;;;;;;5053858;28;20071;-86
2020/12/08 06:15:01;;;;;;;35.53;19.02;;;;;;;;;;5053443;28;20041;-87
2020/12/08 06:17:27;;;;;;;36.85;19.42;;;;;;;;;;5053365;28;20045;-87
2020/12/08 06:19:53;;;;;;;36.97;19.60;;;;;;;;;;5053300;28;20045;-86
2020/12/08 06:22:20;;;;;;;35.67;19.08;;;;;;;;;;5053469;28;20053;-86
2020/12/08 06:24:53;;;;;;;33.67;18.73;;;;;;;;;;5053806;28;20045;-87
2020/12/08 06:27:20;;;;;;;36.65;20.77;;;;;;;;;;5053495;28;20053;-87
2020/12/08 06:29:51;;;;;;;38.35;19.23;;;;;;;;;;5053765;28;20057;-86
2020/12/08 06:32:27;;;;;;;36.67;18.83;;;;;;;;;;5053410;28;20435;-86
2020/12/08 06:35:04;;;;;;;40.33;19.70;;;;;;;;;;5053267;28;20049;-86
2020/12/08 06:37:31;;;;;;;41.40;20.45;;;;;;;;;;5053235;28;20041;-86
2020/12/08 06:40:06;;;;;;;38.75;20.65;;;;;;;;;;5053193;28;20049;-85
2020/12/08 06:42:32;;;;;;;41.67;20.23;;;;;;;;;;5053076;28;20099;-86
2020/12/08 06:45:05;;;;;;;41.55;20.02;;;;;;;;;;5053361;28;20053;-86
2020/12/08 06:47:32;;;;;;;37.53;19.38;;;;;;;;;;5053124;28;20052;-86
2020/12/08 06:49:57;;;;;;;38.90;20.55;;;;;;;;;;5052989;28;20516;-85
2020/12/08 06:52:23;;;;;;;44.08;22.00;;;;;;;;;;5053247;28;20068;-85
2020/12/08 06:54:58;;;;;;;44.47;21.67;;;;;;;;;;5053840;28;20115;-85
2020/12/08 06:57:23;;;;;;;42.55;21.88;;;;;;;;;;5053479;28;20049;-86
2020/12/08 06:59:49;;;;;;;41.80;21.27;;;;;;;;;;5053518;28;20077;-86
2020/12/08 07:02:15;;;;;;;40.75;21.38;;;;;;;;;;5053913;28;20041;-86
2020/12/08 07:04:42;;;;;;;40.70;21.75;;;;;;;;;;5054544;28;20060;-86
2020/12/08 07:07:08;;;;;;;43.75;22.10;;;;;;;;;;5054135;28;20049;-85
2020/12/08 07:09:34;;;;;;;50.30;23.55;;;;;;;;;;5053124;28;20496;-85
2020/12/08 07:12:01;;;;;;;43.63;22.60;;;;;;;;;;5052723;28;20618;-86
2020/12/08 07:14:28;;;;;;;47.08;22.00;;;;;;;;;;5054153;28;20511;-86
2020/12/08 07:16:54;;;;;;;41.33;21.63;;;;;;;;;;5057261;28;20048;-86
2020/12/08 07:19:20;;;;;;;45.40;23.02;;;;;;;;;;5056747;28;20052;-86
2020/12/08 07:21:55;;;;;;;38.67;20.73;;;;;;;;;;5056920;28;20053;-86
2020/12/08 07:24:24;;;;;;;44.25;23.45;;;;;;;;;;5056916;28;20493;-87
2020/12/08 07:26:50;;;;;;;41.08;21.52;;;;;;;;;;5056767;28;20048;-87
2020/12/08 07:29:17;;;;;;;43.80;21.85;;;;;;;;;;5057043;28;20159;-86
2020/12/08 07:31:46;;;;;;;41.92;21.65;;;;;;;;;;5057290;28;20477;-86
2020/12/08 07:34:13;;;;;;;47.92;23.73;;;;;;;;;;5056566;28;20499;-85
2020/12/08 07:36:55;;;;;;;44.95;22.90;;;;;;;;;;5055937;28;20543;-86
2020/12/08 07:42:12;;;;;;;43.60;22.05;;;;;;;;;;5015363;28;20057;-86
2020/12/08 07:44:39;;;;;;;39.10;20.63;;;;;;;;;;5037225;28;20053;-86
2020/12/08 07:47:11;;;;;;;35.92;19.08;;;;;;;;;;5037601;28;20046;-86
2020/12/08 07:49:39;;;;;;;37.22;19.48;;;;;;;;;;5038377;28;20053;-87
2020/12/08 07:52:05;;;;;;;36.80;19.88;;;;;;;;;;5038003;28;20053;-86
2020/12/08 07:54:31;;;;;;;38.75;20.35;;;;;;;;;;5037658;28;20076;-86
2020/12/08 07:56:57;;;;;;;39.20;20.77;;;;;;;;;;5037346;28;20191;-86
2020/12/08 07:59:23;;;;;;;39.70;20.40;;;;;;;;;;5037284;28;20065;-86
2020/12/08 08:01:50;;;;;;;35.08;19.42;;;;;;;;;;5035906;28;20069;-86
2020/12/08 08:04:16;;;;;;;41.33;21.20;;;;;;;;;;5036723;28;20049;-86
2020/12/08 08:06:44;;;;;;;41.58;20.77;;;;;;;;;;5038145;28;20053;-86
2020/12/08 08:09:10;;;;;;;43.40;22.73;;;;;;;;;;5036448;28;20096;-86
2020/12/08 08:11:36;;;;;;;45.33;24.63;;;;;;;;;;5036062;28;20128;-86
2020/12/08 08:14:03;;;;;;;40.28;20.63;;;;;;;;;;5036400;28;20076;-86
2020/12/08 08:16:34;;;;;;;39.47;20.75;;;;;;;;;;5036236;28;20049;-86
2020/12/08 08:19:01;;;;;;;36.80;19.67;;;;;;;;;;5036679;28;20057;-86
2020/12/08 08:21:27;;;;;;;39.58;21.05;;;;;;;;;;5036056;28;20045;-87
2020/12/08 08:23:53;;;;;;;41.45;22.55;;;;;;;;;;5036468;28;20104;-86
2020/12/08 08:26:19;;;;;;;39.83;22.70;;;;;;;;;;5034962;28;20084;-86
2020/12/08 08:28:45;;;;;;;45.40;22.83;;;;;;;;;;5036497;28;20045;-86
2020/12/08 08:31:11;;;;;;;47.60;23.75;;;;;;;;;;5035879;28;20061;-86
2020/12/08 08:33:41;;;;;;;50.67;25.20;;;;;;;;;;5036002;28;20056;-87
2020/12/08 08:36:08;;;;;;;45.65;23.48;;;;;;;;;;5036167;28;20041;-86
2020/12/08 08:38:34;;;;;;;44.00;25.70;;;;;;;;;;5034848;28;20405;-86
2020/12/08 08:41:00;;;;;;;36.95;20.35;;;;;;;;;;5035483;28;20057;-86
2020/12/08 08:43:34;;;;;;;38.03;19.42;;;;;;;;;;5035308;28;20458;-87
2020/12/08 08:46:00;;;;;;;38.78;21.58;;;;;;;;;;5034749;28;20581;-87
2020/12/08 08:48:26;;;;;;;46.78;25.48;;;;;;;;;;5034548;28;20045;-86
2020/12/08 08:50:52;;;;;;;49.92;28.98;;;;;;;;;;5035090;28;20075;-86
2020/12/08 08:53:21;;;;;;;41.50;21.45;;;;;;;;;;5035512;28;20107;-87
2020/12/08 08:55:47;;;;;;;37.28;22.60;;;;;;;;;;5034423;28;20076;-87
2020/12/08 08:58:13;;;;;;;40.53;23.30;;;;;;;;;;5034152;28;20054;-86
2020/12/08 09:00:40;;;;;;;47.13;26.45;;;;;;;;;;5034544;28;20100;-86
2020/12/08 09:03:08;;;;;;;51.28;30.00;;;;;;;;;;5034662;28;20052;-88
2020/12/08 09:05:34;;;;;;;43.92;25.63;;;;;;;;;;5034611;28;20536;-86
2020/12/08 09:08:00;;;;;;;47.58;25.63;;;;;;;;;;5035859;28;20331;-86
2020/12/08 09:10:27;;;;;;;56.03;34.63;;;;;;;;;;5040132;28;20045;-87
2020/12/08 09:12:53;;;;;;;44.63;25.90;;;;;;;;;;5040024;28;20053;-87
2020/12/08 09:15:19;;;;;;;43.70;24.10;;;;;;;;;;5039914;28;20408;-87
2020/12/08 09:17:45;;;;;;;38.60;22.00;;;;;;;;;;5040055;28;20056;-87
2020/12/08 09:20:11;;;;;;;40.38;22.15;;;;;;;;;;5039291;28;20053;-87
2020/12/08 09:22:37;;;;;;;36.45;21.63;;;;;;;;;;5041292;28;20405;-87
2020/12/08 09:25:03;;;;;;;31.88;18.83;;;;;;;;;;5040522;28;20041;-87
2020/12/08 09:27:30;;;;;;;32.30;18.95;;;;;;;;;;5039569;28;20057;-87
2020/12/08 09:29:56;;;;;;;36.53;21.00;;;;;;;;;;5040423;28;20054;-87
2020/12/08 09:32:22;;;;;;;41.88;23.30;;;;;;;;;;5040356;28;20105;-87
2020/12/08 09:34:48;;;;;;;39.78;22.33;;;;;;;;;;5041771;28;20048;-87
2020/12/08 09:37:14;;;;;;;37.40;21.40;;;;;;;;;;5042160;28;20046;-87
2020/12/08 09:39:40;;;;;;;43.85;23.95;;;;;;;;;;5038213;28;20053;-86
2020/12/08 09:42:06;;;;;;;42.38;25.88;;;;;;;;;;5040889;28;20103;-87
2020/12/08 09:44:33;;;;;;;39.75;21.75;;;;;;;;;;5040356;28;20059;-87
2020/12/08 09:46:59;;;;;;;35.08;20.13;;;;;;;;;;5041598;28;20057;-86
2020/12/08 09:49:25;;;;;;;34.08;20.05;;;;;;;;;;5046003;28;20041;-86
2020/12/08 09:51:50;;;;;;;35.38;20.50;;;;;;;;;;5041165;28;20112;-87
2020/12/08 09:54:16;;;;;;;31.92;19.30;;;;;;;;;;5041208;28;20053;-87
2020/12/08 09:56:45;;;;;;;32.50;20.20;;;;;;;;;;5044985;28;20045;-86
2020/12/08 09:59:11;;;;;;;40.78;22.77;;;;;;;;;;5047141;28;20053;-87
2020/12/08 10:01:38;;;;;;;32.85;20.10;;;;;;;;;;5047468;28;20065;-87
2020/12/08 10:04:04;;;;;;;35.80;20.92;;;;;;;;;;5047776;28;20057;-87
2020/12/08 10:06:30;;;;;;;35.70;21.10;;;;;;;;;;5046478;28;20045;-87
2020/12/08 10:08:56;;;;;;;39.50;25.02;;;;;;;;;;5040126;28;20045;-87
2020/12/08 10:11:23;;;;;;;39.25;20.90;;;;;;;;;;5039878;28;20055;-86
2020/12/08 10:13:49;;;;;;;36.25;22.15;;;;;;;;;;5040971;28;20052;-87
2020/12/08 10:16:18;;;;;;;34.42;20.27;;;;;;;;;;5040521;28;20045;-87
2020/12/08 10:18:45;;;;;;;36.25;20.83;;;;;;;;;;5039841;28;20042;-86
2020/12/08 10:21:11;;;;;;;36.15;21.15;;;;;;;;;;5036262;28;20055;-87
2020/12/08 10:23:44;;;;;;;33.42;20.73;;;;;;;;;;5037579;28;20045;-87
2020/12/08 10:26:11;;;;;;;33.25;20.42;;;;;;;;;;5036999;28;20063;-87
2020/12/08 10:28:37;;;;;;;32.80;19.60;;;;;;;;;;5035506;28;20049;-87
2020/12/08 10:31:03;;;;;;;38.60;20.95;;;;;;;;;;5043375;28;20045;-88
2020/12/08 10:33:29;;;;;;;34.58;21.73;;;;;;;;;;5057828;28;20076;-88
2020/12/08 10:36:00;;;;;;;32.45;19.17;;;;;;;;;;5058071;28;20052;-86
2020/12/08 10:38:26;;;;;;;38.45;21.58;;;;;;;;;;5058430;28;20049;-87
2020/12/08 10:40:54;;;;;;;36.60;22.67;;;;;;;;;;5056556;28;20132;-89
2020/12/08 10:43:20;;;;;;;30.20;19.35;;;;;;;;;;5057917;28;20041;-86
2020/12/08 10:45:49;;;;;;;32.47;20.30;;;;;;;;;;5057543;28;20127;-87
2020/12/08 10:48:16;;;;;;;34.92;19.77;;;;;;;;;;5046867;28;20088;-86
2020/12/08 10:50:43;;;;;;;36.40;20.95;;;;;;;;;;5044335;28;20493;-86
2020/12/08 10:53:09;;;;;;;33.50;20.77;;;;;;;;;;5054002;28;20056;-87
2020/12/08 10:55:36;;;;;;;32.22;19.88;;;;;;;;;;5060367;28;20041;-86
2020/12/08 10:58:02;;;;;;;31.25;18.83;;;;;;;;;;5054819;28;20049;-85
2020/12/08 11:00:28;;;;;;;32.92;19.58;;;;;;;;;;5059360;28;20400;-87
2020/12/08 11:02:54;;;;;;;30.13;18.75;;;;;;;;;;5059299;28;20037;-86
2020/12/08 11:05:20;;;;;;;31.65;19.55;;;;;;;;;;5059933;28;20072;-86
2020/12/08 11:07:46;;;;;;;31.88;19.17;;;;;;;;;;5060968;28;20128;-85
2020/12/08 11:10:13;;;;;;;32.28;18.77;;;;;;;;;;5050546;28;20053;-87
2020/12/08 11:12:39;;;;;;;32.22;20.85;;;;;;;;;;5040295;28;20137;-87
2020/12/08 11:15:06;;;;;;;32.83;20.33;;;;;;;;;;5039405;28;20057;-87
2020/12/08 11:17:35;;;;;;;31.23;17.95;;;;;;;;;;5039040;28;20057;-86
2020/12/08 11:20:01;;;;;;;29.95;18.23;;;;;;;;;;5039271;28;20060;-87
2020/12/08 11:22:27;;;;;;;29.42;18.27;;;;;;;;;;5039146;28;20063;-87
2020/12/08 11:24:53;;;;;;;29.83;18.67;;;;;;;;;;5038593;28;20049;-86
2020/12/08 11:27:20;;;;;;;29.85;19.63;;;;;;;;;;5038312;28;20089;-87
2020/12/08 11:29:46;;;;;;;29.55;18.45;;;;;;;;;;5038580;28;20060;-88
2020/12/08 11:32:12;;;;;;;34.00;19.88;;;;;;;;;;5037987;28;20053;-87
2020/12/08 11:34:38;;;;;;;29.92;18.95;;;;;;;;;;5038611;28;20042;-87
2020/12/08 11:37:05;;;;;;;32.75;18.88;;;;;;;;;;5039185;28;20053;-89
2020/12/08 11:39:31;;;;;;;30.15;18.63;;;;;;;;;;5037737;28;20128;-87
2020/12/08 11:41:57;;;;;;;29.10;19.13;;;;;;;;;;5038849;28;20135;-86
2020/12/08 11:44:24;;;;;;;28.73;19.33;;;;;;;;;;5038602;28;20053;-85
2020/12/08 11:46:51;;;;;;;33.30;20.65;;;;;;;;;;5042472;28;20045;-85
2020/12/08 11:49:17;;;;;;;34.10;20.23;;;;;;;;;;5047478;28;20060;-88
2020/12/08 11:51:43;;;;;;;31.40;19.67;;;;;;;;;;5049650;28;20049;-86
2020/12/08 11:54:09;;;;;;;32.13;18.95;;;;;;;;;;5058347;28;20124;-87
2020/12/08 11:56:36;;;;;;;28.95;18.65;;;;;;;;;;5055251;28;20049;-87
2020/12/08 11:59:02;;;;;;;29.85;19.13;;;;;;;;;;5037773;28;20057;-87
2020/12/08 12:01:29;;;;;;;30.75;18.92;;;;;;;;;;5016152;28;20493;-86
2020/12/08 12:03:55;;;;;;;31.77;19.00;;;;;;;;;;5041991;28;20048;-87
2020/12/08 12:06:21;;;;;;;34.88;20.92;;;;;;;;;;5049525;28;20485;-87
2020/12/08 12:08:47;;;;;;;31.63;20.55;;;;;;;;;;5035966;28;20508;-87
2020/12/08 12:11:13;;;;;;;30.48;19.08;;;;;;;;;;5047678;28;20484;-87
2020/12/08 12:13:39;;;;;;;35.53;21.33;;;;;;;;;;5058205;28;20045;-89
2020/12/08 12:16:05;;;;;;;33.80;19.25;;;;;;;;;;5059805;28;20045;-87
2020/12/08 12:18:32;;;;;;;37.55;20.50;;;;;;;;;;5039974;28;20111;-86
2020/12/08 12:20:58;;;;;;;33.83;19.05;;;;;;;;;;5038200;28;20056;-86
2020/12/08 12:23:25;;;;;;;34.30;20.73;;;;;;;;;;5039055;28;20053;-86
2020/12/08 12:25:51;;;;;;;37.35;21.65;;;;;;;;;;5042506;28;20059;-88
2020/12/08 12:28:17;;;;;;;33.08;20.50;;;;;;;;;;5057211;28;20052;-87
2020/12/08 12:30:43;;;;;;;32.50;19.88;;;;;;;;;;5058272;28;20136;-87
2020/12/08 12:33:09;;;;;;;33.47;19.90;;;;;;;;;;5058750;28;20041;-86
2020/12/08 12:35:36;;;;;;;39.05;20.65;;;;;;;;;;5059869;28;20072;-87
2020/12/08 12:38:02;;;;;;;34.28;21.50;;;;;;;;;;5059570;28;20056;-86
2020/12/08 12:40:29;;;;;;;34.70;20.15;;;;;;;;;;5061034;28;20053;-88
2020/12/08 12:42:55;;;;;;;31.80;20.38;;;;;;;;;;5058781;28;20049;-89
2020/12/08 12:45:21;;;;;;;32.53;20.27;;;;;;;;;;5045620;28;20045;-87
2020/12/08 12:47:49;;;;;;;36.30;20.65;;;;;;;;;;5040124;28;20060;-89
2020/12/08 12:50:15;;;;;;;36.22;22.23;;;;;;;;;;5048228;28;20420;-85
2020/12/08 12:52:42;;;;;;;32.55;21.67;;;;;;;;;;5058389;28;20045;-86
2020/12/08 12:55:08;;;;;;;35.42;21.40;;;;;;;;;;5041884;28;20045;-86
2020/12/08 12:57:34;;;;;;;34.78;21.45;;;;;;;;;;5059374;28;20053;-87
2020/12/08 13:00:00;;;;;;;35.58;20.48;;;;;;;;;;5060114;28;20076;-87
2020/12/08 13:02:26;;;;;;;29.92;18.55;;;;;;;;;;5056763;28;20049;-89
2020/12/08 13:04:52;;;;;;;34.70;19.77;;;;;;;;;;5048885;28;20102;-86
2020/12/08 13:07:18;;;;;;;31.60;19.42;;;;;;;;;;5038152;28;20536;-86
2020/12/08 13:09:45;;;;;;;35.45;20.40;;;;;;;;;;5038200;28;20045;-86
2020/12/08 13:12:11;;;;;;;33.63;20.48;;;;;;;;;;5036879;28;20056;-86
2020/12/08 13:14:37;;;;;;;35.95;20.13;;;;;;;;;;5037093;28;20053;-89
2020/12/08 13:17:03;;;;;;;33.47;19.77;;;;;;;;;;5039279;28;20057;-87
2020/12/08 13:19:30;;;;;;;33.70;19.35;;;;;;;;;;5038167;28;20065;-85
2020/12/08 13:21:56;;;;;;;33.58;19.10;;;;;;;;;;5036748;28;20045;-86
2020/12/08 13:24:22;;;;;;;33.83;18.73;;;;;;;;;;5033741;28;20050;-85
2020/12/08 13:26:49;;;;;;;30.38;19.02;;;;;;;;;;5037563;28;20053;-86
2020/12/08 13:29:14;;;;;;;33.03;19.55;;;;;;;;;;5037086;28;20488;-87
2020/12/08 13:31:40;;;;;;;32.53;17.95;;;;;;;;;;5036478;28;20072;-86
2020/12/08 13:34:06;;;;;;;34.20;18.77;;;;;;;;;;5038118;28;20045;-86
2020/12/08 13:36:33;;;;;;;33.00;19.20;;;;;;;;;;5038037;28;20107;-86
2020/12/08 13:38:59;;;;;;;31.70;18.25;;;;;;;;;;5036825;28;20050;-86
2020/12/08 13:41:25;;;;;;;32.80;18.25;;;;;;;;;;5037352;28;20117;-85
2020/12/08 13:43:51;;;;;;;30.02;18.25;;;;;;;;;;5036942;28;20055;-87
2020/12/08 13:46:20;;;;;;;30.90;19.13;;;;;;;;;;5035739;28;20049;-86
2020/12/08 13:48:46;;;;;;;31.17;20.83;;;;;;;;;;5038617;28;20048;-86
2020/12/08 13:51:12;;;;;;;30.20;19.23;;;;;;;;;;5038597;28;20493;-86
2020/12/08 13:53:38;;;;;;;30.95;18.85;;;;;;;;;;5037171;28;20428;-86
2020/12/08 13:56:04;;;;;;;37.45;20.30;;;;;;;;;;5036869;28;20041;-87
2020/12/08 13:58:32;;;;;;;34.17;21.92;;;;;;;;;;5046396;28;20045;-88
2020/12/08 14:01:02;;;;;;;36.25;23.23;;;;;;;;;;5045841;28;20037;-87
2020/12/08 14:03:29;;;;;;;35.92;22.73;;;;;;;;;;5038937;28;20045;-88
2020/12/08 14:05:56;;;;;;;36.60;19.80;;;;;;;;;;5038917;28;20053;-86
2020/12/08 14:08:22;;;;;;;31.42;20.15;;;;;;;;;;5040608;28;20132;-86
2020/12/08 14:10:48;;;;;;;30.00;18.75;;;;;;;;;;5038144;28;20056;-86
2020/12/08 14:13:14;;;;;;;31.20;19.98;;;;;;;;;;5036219;28;20562;-86
2020/12/08 14:15:40;;;;;;;32.15;20.38;;;;;;;;;;5038033;28;20071;-87